Pti Huang He — VRQD8 — position and weather

sailwx.info

Track history (hours):
 
Tides and Currents Weather Stations Pressure Air Temp Water Temp Dewpoint Dewpoint Depression Visibility Wind Speed Wind Dir Waves Ship Positions

Pti Huang He

Last reported at 2017-Nov-01 01:40 UTC. Time now 2017-Nov-18 17:55 UTC.
Position N 16°41' W 062°39'.
Warning: this ship's position is 17 days out of date.

Length 183 m; draft 8.5 m.

Type: Tanker. MMSI: 477252200.

Date/timePositionNaut miles runAvg speedWind from/ knotsBaromVisibWave heightAir tempDewpointWater temp
2017-Nov-01 01:40N 16°41' W 062°39'212.7
2017-Nov-01 01:30N 16°39' W 062°38'613.0
2017-Nov-01 01:01N 16°34' W 062°35'713.2
2017-Nov-01 00:29N 16°27' W 062°32'613.1
2017-Oct-31 23:59N 16°22' W 062°28'14913.2
2017-Oct-31 12:38N 14°18' W 061°02'813.5
2017-Oct-31 12:05N 14°15' W 060°55'313.5
2017-Oct-31 11:51N 14°14' W 060°52'613.5
2017-Oct-31 11:25N 14°11' W 060°47'  
Track history (hours):
 
Tides and Currents Weather Stations Pressure Air Temp Water Temp Dewpoint Dewpoint Depression Visibility Wind Speed Wind Dir Waves Ship Positions

Pti Huang He

Last reported at 2017-Nov-01 01:40 UTC. Time now 2017-Nov-18 17:55 UTC.
Position N 16°41' W 062°39'.
Warning: this ship's position is 17 days out of date.

Length 183 m; draft 8.5 m.

Type: Tanker. MMSI: 477252200.

Date/timePositionNaut miles runAvg speedWind from/ knotsBaromVisibWave heightAir tempDewpointWater temp
2017-Nov-01 01:40N 16°41' W 062°39'212.7
2017-Nov-01 01:30N 16°39' W 062°38'613.0
2017-Nov-01 01:01N 16°34' W 062°35'713.2
2017-Nov-01 00:29N 16°27' W 062°32'613.1
2017-Oct-31 23:59N 16°22' W 062°28'14913.2
2017-Oct-31 12:38N 14°18' W 061°02'813.5
2017-Oct-31 12:05N 14°15' W 060°55'313.5
2017-Oct-31 11:51N 14°14' W 060°52'613.5
2017-Oct-31 11:25N 14°11' W 060°47'  

Dump ship's entire track history